Schneifelwetter: Wetterstation Hallschlag, 537 m . NN
Wetterdaten: Dienstag, 20.11.2012
Datum Zeit Temp. A. Feuchte A. Luftdruck Regen Wind Richtung Richtung Sonnenschein T Regen Taupunkt Windchill
20.11.2012 00:01 4,6 C 99 % 1015 hPa 0,0 l/m 0,0 km/h (0 Bft) W-SW 250 0 min 0 min 4,5 C 4,6 C
20.11.2012 00:16 4,4 C 99 % 1015 hPa 0,0 l/m 0,0 km/h (0 Bft) W-SW 250 0 min 0 min 4,3 C 4,4 C
20.11.2012 00:31 4,0 C 98 % 1016 hPa 0,0 l/m 3,4 km/h (1 Bft) W-SW 250 0 min 0 min 3,7 C 4,0 C
20.11.2012 00:46 3,8 C 98 % 1015 hPa 0,0 l/m 0,0 km/h (0 Bft) W-SW 250 0 min 0 min 3,5 C 3,8 C
20.11.2012 01:01 3,6 C 99 % 1016 hPa 0,0 l/m 0,0 km/h (0 Bft) W-SW 250 0 min 0 min 3,5 C 3,6 C
20.11.2012 01:15 3,6 C 99 % 1015 hPa 0,0 l/m 0,0 km/h (0 Bft) W-SW 250 0 min 0 min 3,5 C 3,6 C
20.11.2012 01:30 3,7 C 99 % 1015 hPa 0,0 l/m 0,0 km/h (0 Bft) W-SW 250 0 min 0 min 3,6 C 3,7 C
20.11.2012 01:45 3,7 C 99 % 1015 hPa 0,0 l/m 8,0 km/h (2 Bft) W-SW 255 0 min 0 min 3,6 C 2,2 C
20.11.2012 02:00 3,8 C 99 % 1015 hPa 0,0 l/m 0,0 km/h (0 Bft) W-SW 250 0 min 0 min 3,7 C 3,8 C
20.11.2012 02:15 3,9 C 99 % 1015 hPa 0,0 l/m 0,0 km/h (0 Bft) W-SW 250 0 min 0 min 3,8 C 3,9 C
20.11.2012 02:30 4,0 C 99 % 1015 hPa 0,0 l/m 3,6 km/h (1 Bft) W-SW 250 0 min 0 min 3,9 C 4,0 C
20.11.2012 02:45 4,1 C 99 % 1015 hPa 0,0 l/m 0,0 km/h (0 Bft) S45 180 0 min 0 min 4,0 C 4,1 C
20.11.2012 03:00 4,0 C 99 % 1015 hPa 0,0 l/m 0,0 km/h (0 Bft) S22.5 175 0 min 0 min 3,9 C 4,0 C
20.11.2012 03:15 3,9 C 99 % 1015 hPa 0,0 l/m 0,0 km/h (0 Bft) SW 230 0 min 0 min 3,8 C 3,9 C
20.11.2012 03:30 3,8 C 99 % 1015 hPa 0,0 l/m 0,0 km/h (0 Bft) SW 230 0 min 0 min 3,7 C 3,8 C
20.11.2012 03:45 3,6 C 99 % 1015 hPa 0,0 l/m 0,0 km/h (0 Bft) SW 230 0 min 0 min 3,5 C 3,6 C
20.11.2012 04:00 3,5 C 99 % 1015 hPa 0,0 l/m 0,0 km/h (0 Bft) SW 215 0 min 0 min 3,4 C 3,5 C
20.11.2012 04:15 3,2 C 99 % 1015 hPa 0,0 l/m 0,0 km/h (0 Bft) SW 215 0 min 0 min 3,1 C 3,2 C
20.11.2012 04:30 3,0 C 99 % 1015 hPa 0,0 l/m 3,2 km/h (1 Bft) S 190 0 min 0 min 2,9 C 3,0 C
20.11.2012 04:45 2,6 C 98 % 1015 hPa 0,0 l/m 3,7 km/h (1 Bft) W-NW22.5 285 0 min 0 min 2,3 C 2,6 C
20.11.2012 05:00 2,3 C 98 % 1015 hPa 0,0 l/m 4,5 km/h (1 Bft) W-SW 245 0 min 0 min 2,0 C 2,3 C
20.11.2012 05:15 2,1 C 99 % 1015 hPa 0,0 l/m 0,0 km/h (0 Bft) W-SW 245 0 min 0 min 2,0 C 2,1 C
20.11.2012 05:30 1,9 C 99 % 1015 hPa 0,0 l/m 0,0 km/h (0 Bft) W-SW 245 0 min 0 min 1,8 C 1,9 C
20.11.2012 05:45 1,7 C 99 % 1015 hPa 0,3 l/m 0,0 km/h (0 Bft) W-SW 245 0 min 15 min 1,6 C 1,7 C
20.11.2012 06:00 1,6 C 99 % 1015 hPa 0,0 l/m 0,0 km/h (0 Bft) W-SW 245 0 min 0 min 1,5 C 1,6 C
20.11.2012 06:15 1,5 C 99 % 1015 hPa 0,0 l/m 0,0 km/h (0 Bft) W-SW 245 0 min 0 min 1,4 C 1,5 C
20.11.2012 06:30 1,3 C 99 % 1015 hPa 0,0 l/m 0,0 km/h (0 Bft) W-SW 245 0 min 0 min 1,2 C 1,3 C
20.11.2012 06:45 1,2 C 99 % 1015 hPa 0,0 l/m 0,0 km/h (0 Bft) W-SW 245 0 min 0 min 1,1 C 1,2 C
20.11.2012 07:00 1,0 C 99 % 1015 hPa 0,0 l/m 0,0 km/h (0 Bft) W-SW 245 0 min 0 min 0,9 C 1,0 C
20.11.2012 07:15 0,7 C 99 % 1016 hPa 0,0 l/m 0,0 km/h (0 Bft) W-SW 245 0 min 0 min 0,6 C 0,7 C
20.11.2012 07:30 0,3 C 99 % 1015 hPa 0,0 l/m 0,0 km/h (0 Bft) W-SW 245 0 min 0 min 0,2 C 0,3 C
20.11.2012 07:45 0,2 C 99 % 1015 hPa 0,0 l/m 0,0 km/h (0 Bft) W-SW 245 0 min 0 min 0,1 C 0,2 C
20.11.2012 08:00 0,1 C 99 % 1016 hPa 0,0 l/m 0,0 km/h (0 Bft) W-SW 245 0 min 0 min -0,0 C 0,1 C
20.11.2012 08:16 0,0 C 99 % 1016 hPa 0,0 l/m 0,0 km/h (0 Bft) W-SW 245 0 min 0 min -0,1 C 0,0 C
20.11.2012 08:30 0,1 C 99 % 1016 hPa 0,0 l/m 0,0 km/h (0 Bft) W-SW 245 0 min 0 min -0,0 C 0,1 C
20.11.2012 08:45 0,4 C 99 % 1016 hPa 0,0 l/m 0,0 km/h (0 Bft) W-SW 245 0 min 0 min 0,3 C 0,4 C
20.11.2012 09:00 1,0 C 99 % 1016 hPa 0,0 l/m 0,0 km/h (0 Bft) W-SW 245 0 min 0 min 0,9 C 1,0 C
20.11.2012 09:16 1,3 C 99 % 1016 hPa 0,0 l/m 0,0 km/h (0 Bft) S-SO 165 0 min 0 min 1,2 C 1,3 C
20.11.2012 09:31 1,7 C 99 % 1016 hPa 0,0 l/m 0,0 km/h (0 Bft) S 185 0 min 0 min 1,6 C 1,7 C
20.11.2012 09:45 2,1 C 99 % 1016 hPa 0,0 l/m 0,0 km/h (0 Bft) S22.5 170 0 min 0 min 2,0 C 2,1 C
20.11.2012 10:00 2,7 C 99 % 1016 hPa 0,0 l/m 0,0 km/h (0 Bft) S-SO 160 0 min 0 min 2,6 C 2,7 C
20.11.2012 10:15 2,7 C 99 % 1016 hPa 0,0 l/m 0,0 km/h (0 Bft) S-SO 160 0 min 0 min 2,6 C 2,7 C
20.11.2012 10:30 3,1 C 99 % 1016 hPa 0,0 l/m 0,0 km/h (0 Bft) S-SO 160 0 min 0 min 3,0 C 3,1 C
20.11.2012 10:46 3,5 C 99 % 1016 hPa 0,0 l/m 0,0 km/h (0 Bft) S-SO 160 0 min 0 min 3,4 C 3,5 C
20.11.2012 11:01 3,9 C 99 % 1016 hPa 0,0 l/m 0,0 km/h (0 Bft) S-SO 160 0 min 0 min 3,8 C 3,9 C
20.11.2012 11:16 3,8 C 99 % 1016 hPa 0,0 l/m 0,0 km/h (0 Bft) S-SO22.5 160 0 min 0 min 3,7 C 3,8 C
20.11.2012 11:30 4,2 C 99 % 1016 hPa 0,0 l/m 0,0 km/h (0 Bft) N-NW 345 0 min 0 min 4,1 C 4,2 C
20.11.2012 11:45 4,5 C 99 % 1016 hPa 0,0 l/m 0,0 km/h (0 Bft) SO 130 0 min 0 min 4,4 C 4,5 C
20.11.2012 12:00 4,6 C 99 % 1016 hPa 0,0 l/m 0,0 km/h (0 Bft) O-SO22.5 115 0 min 0 min 4,5 C 4,6 C
20.11.2012 12:16 4,7 C 99 % 1016 hPa 0,0 l/m 6,2 km/h (2 Bft) N-NO45 25 0 min 0 min 4,6 C 4,7 C
20.11.2012 12:31 4,9 C 99 % 1016 hPa 0,0 l/m 0,6 km/h (0 Bft) S-SO 165 0 min 0 min 4,8 C 4,9 C
20.11.2012 12:45 5,4 C 99 % 1016 hPa 0,0 l/m 0,6 km/h (0 Bft) S-SO 165 0 min 0 min 5,3 C 5,4 C
20.11.2012 13:00 5,8 C 99 % 1016 hPa 0,0 l/m 0,6 km/h (0 Bft) S-SO 165 0 min 0 min 5,7 C 5,8 C
20.11.2012 13:15 6,0 C 99 % 1015 hPa 0,0 l/m 7,8 km/h (2 Bft) S-SO22.5 165 0 min 0 min 5,9 C 4,8 C
20.11.2012 13:30 6,2 C 98 % 1015 hPa 0,0 l/m 9,0 km/h (2 Bft) S-SO22.5 155 0 min 0 min 5,9 C 4,1 C
20.11.2012 13:46 6,3 C 97 % 1015 hPa 0,0 l/m 12,4 km/h (3 Bft) S-SO22.5 165 0 min 0 min 5,9 C 2,0 C
20.11.2012 14:01 6,5 C 96 % 1015 hPa 0,0 l/m 13,3 km/h (3 Bft) S-SO22.5 165 0 min 0 min 5,9 C 1,8 C
20.11.2012 14:15 6,6 C 95 % 1016 hPa 0,0 l/m 14,0 km/h (3 Bft) S-SO45 165 0 min 0 min 5,9 C 1,5 C
20.11.2012 14:30 6,6 C 94 % 1015 hPa 0,0 l/m 10,7 km/h (2 Bft) S-SO22.5 165 0 min 0 min 5,7 C 3,4 C
20.11.2012 14:45 6,4 C 94 % 1015 hPa 0,0 l/m 11,4 km/h (2 Bft) S-SO22.5 155 0 min 0 min 5,5 C 2,7 C
20.11.2012 15:00 6,1 C 94 % 1015 hPa 0,0 l/m 9,1 km/h (2 Bft) S-SO22.5 155 0 min 0 min 5,2 C 3,9 C
20.11.2012 15:16 6,0 C 94 % 1015 hPa 0,0 l/m 7,8 km/h (2 Bft) S-SO45 165 0 min 0 min 5,1 C 4,8 C
20.11.2012 15:31 5,6 C 94 % 1015 hPa 0,0 l/m 9,0 km/h (2 Bft) S-SO22.5 165 0 min 0 min 4,7 C 3,5 C
20.11.2012 15:45 5,4 C 94 % 1015 hPa 0,0 l/m 10,3 km/h (2 Bft) S-SO22.5 165 0 min 0 min 4,5 C 2,3 C
20.11.2012 16:00 4,9 C 94 % 1015 hPa 0,0 l/m 8,0 km/h (2 Bft) S-SO22.5 155 0 min 0 min 4,0 C 3,5 C
20.11.2012 16:15 4,4 C 94 % 1015 hPa 0,0 l/m 8,4 km/h (2 Bft) S-SO22.5 165 0 min 0 min 3,5 C 2,6 C
20.11.2012 16:30 3,7 C 94 % 1016 hPa 0,0 l/m 7,2 km/h (2 Bft) S-SO 160 0 min 0 min 2,8 C 3,0 C
20.11.2012 16:46 3,0 C 95 % 1015 hPa 0,0 l/m 9,1 km/h (2 Bft) S-SO22.5 160 0 min 0 min 2,3 C 0,6 C
20.11.2012 17:01 2,4 C 95 % 1015 hPa 0,0 l/m 9,0 km/h (2 Bft) S-SO22.5 160 0 min 0 min 1,7 C 0,0 C
20.11.2012 17:15 1,9 C 95 % 1015 hPa 0,0 l/m 4,2 km/h (1 Bft) W-SW 255 0 min 0 min 1,2 C 1,9 C
20.11.2012 17:30 1,5 C 96 % 1015 hPa 0,0 l/m 6,6 km/h (2 Bft) W-SW 250 0 min 0 min 0,9 C 1,3 C
20.11.2012 17:45 1,4 C 96 % 1016 hPa 0,0 l/m 2,7 km/h (1 Bft) W-SW 250 0 min 0 min 0,8 C 1,4 C
20.11.2012 18:00 1,4 C 97 % 1016 hPa 0,0 l/m 0,0 km/h (0 Bft) W-SW 250 0 min 0 min 1,0 C 1,4 C
20.11.2012 18:16 1,5 C 97 % 1016 hPa 0,0 l/m 0,0 km/h (0 Bft) W-SW 240 0 min 0 min 1,1 C 1,5 C
20.11.2012 18:31 1,5 C 97 % 1015 hPa 0,0 l/m 0,7 km/h (0 Bft) SW45 230 0 min 0 min 1,1 C 1,5 C
20.11.2012 18:45 1,7 C 97 % 1015 hPa 0,0 l/m 3,8 km/h (1 Bft) S-SO 165 0 min 0 min 1,3 C 1,7 C
20.11.2012 19:00 1,9 C 98 % 1015 hPa 0,0 l/m 0,0 km/h (0 Bft) S-SO 165 0 min 0 min 1,6 C 1,9 C
20.11.2012 19:15 2,0 C 98 % 1016 hPa 0,0 l/m 0,0 km/h (0 Bft) S-SO 165 0 min 0 min 1,7 C 2,0 C
20.11.2012 19:30 2,0 C 98 % 1016 hPa 0,0 l/m 0,4 km/h (0 Bft) S22.5 190 0 min 0 min 1,7 C 2,0 C
20.11.2012 19:46 2,1 C 98 % 1016 hPa 0,0 l/m 3,4 km/h (1 Bft) S-SW 195 0 min 0 min 1,8 C 2,1 C
20.11.2012 20:01 2,1 C 98 % 1015 hPa 0,0 l/m 0,0 km/h (0 Bft) S-SO 165 0 min 0 min 1,8 C 2,1 C
20.11.2012 20:15 2,0 C 98 % 1015 hPa 0,0 l/m 0,0 km/h (0 Bft) SO 130 0 min 0 min 1,7 C 2,0 C
20.11.2012 20:30 1,9 C 98 % 1015 hPa 0,0 l/m 0,0 km/h (0 Bft) SO 130 0 min 0 min 1,6 C 1,9 C
20.11.2012 20:45 1,9 C 98 % 1015 hPa 0,0 l/m 0,0 km/h (0 Bft) SO 130 0 min 0 min 1,6 C 1,9 C
20.11.2012 21:01 1,9 C 98 % 1015 hPa 0,0 l/m 0,0 km/h (0 Bft) SO 130 0 min 0 min 1,6 C 1,9 C
20.11.2012 21:16 1,9 C 98 % 1015 hPa 0,0 l/m 0,0 km/h (0 Bft) SO 130 0 min 0 min 1,6 C 1,9 C
20.11.2012 21:30 1,9 C 98 % 1015 hPa 0,0 l/m 0,0 km/h (0 Bft) O67.5 100 0 min 0 min 1,6 C 1,9 C
20.11.2012 21:45 1,9 C 98 % 1015 hPa 0,0 l/m 0,0 km/h (0 Bft) O-NO 65 0 min 0 min 1,6 C 1,9 C
20.11.2012 22:00 1,8 C 98 % 1015 hPa 0,0 l/m 0,0 km/h (0 Bft) S 175 0 min 0 min 1,5 C 1,8 C
20.11.2012 22:15 1,6 C 98 % 1015 hPa 0,0 l/m 0,0 km/h (0 Bft) SW22.5 225 0 min 0 min 1,3 C 1,6 C
20.11.2012 22:31 1,5 C 98 % 1015 hPa 0,0 l/m 10,1 km/h (2 Bft) W-SW22.5 255 0 min 0 min 1,2 C -1,9 C
20.11.2012 22:46 1,2 C 98 % 1015 hPa 0,0 l/m 0,5 km/h (0 Bft) SW22.5 225 0 min 0 min 0,9 C 1,2 C
20.11.2012 23:00 1,1 C 98 % 1015 hPa 0,0 l/m 0,0 km/h (0 Bft) W-SW 255 0 min 0 min 0,8 C 1,1 C
20.11.2012 23:15 1,1 C 98 % 1015 hPa 0,0 l/m 0,0 km/h (0 Bft) W 270 0 min 0 min 0,8 C 1,1 C
20.11.2012 23:30 1,1 C 98 % 1015 hPa 0,0 l/m 0,0 km/h (0 Bft) W 270 0 min 0 min 0,8 C 1,1 C
20.11.2012 23:45 1,2 C 98 % 1014 hPa 0,0 l/m 0,0 km/h (0 Bft) W 270 0 min 0 min 0,9 C 1,2 C
20.11.2012 23:54 1,2 C 99 % 1014 hPa 0,0 l/m 0,0 km/h (0 Bft) W 275 0 min 0 min 1,1 C 1,2 C
_ Min-Zeit 08:16 14:30 23:45 - 00:01 - - - - 08:16 22:31
Minimum _ 0,0 C 94 % 1014 hPa - 0,0 km/h (0 Bft) - - - - -0,1 C -1,9 C
_ Max-Zeit 14:15 00:01 00:31 05:45 14:15 - - 00:01 05:45 14:01 13:00
Maximum _ 6,6 C 99 % 1016 hPa 0,3 l/m 14,0 km/h
S-SO (3 Bft)
- - 0 min 15 min 5,9 C 5,8 C
Durchschnitt _ 2,9 C 98 % 1015 hPa #0,3 l/m 2,3 km/h (1 Bft) S-SO - #0 min. #15 min. 2,6 C 2,4 C